Time;durP1;ratioP1;P1;durP2;ratioP2;P2;SDS_P1;SDS_P2;PMS_P1;PMS_P2;Temp;Humidity;BMP_temperature;BMP_pressure;BME280_temperature;BME280_humidity;BME280_pressure;Samples;Min_cycle;Max_cycle;Signal;HPM_P1;HPM_P2
2023/03/16 00:02:08;;;;;;;9.23;5.15;;;4.30;99.90;;;;;;5026770;28;20045;-57
2023/03/16 00:04:36;;;;;;;9.93;4.63;;;4.20;99.90;;;;;;5006359;28;20392;-57
2023/03/16 00:07:11;;;;;;;10.32;5.22;;;4.20;99.90;;;;;;5023812;28;20069;-58
2023/03/16 00:09:39;;;;;;;10.68;5.20;;;4.40;99.90;;;;;;5018912;28;20132;-58
2023/03/16 00:12:14;;;;;;;10.52;5.30;;;4.30;99.90;;;;;;5023995;28;20380;-58
2023/03/16 00:14:44;;;;;;;9.27;4.97;;;4.30;99.90;;;;;;5024726;28;20500;-58
2023/03/16 00:17:18;;;;;;;8.95;5.00;;;4.20;99.90;;;;;;5024153;28;20030;-57
2023/03/16 00:19:56;;;;;;;9.82;5.45;;;4.30;99.90;;;;;;5025322;28;20120;-57
2023/03/16 00:22:26;;;;;;;11.43;5.35;;;4.30;99.90;;;;;;5024682;28;21208;-58
2023/03/16 00:24:52;;;;;;;8.43;5.03;;;4.20;99.90;;;;;;5022973;28;20049;-58
2023/03/16 00:27:21;;;;;;;8.48;5.55;;;4.30;99.90;;;;;;5024686;28;20499;-58
2023/03/16 00:29:48;;;;;;;8.32;5.18;;;4.30;99.90;;;;;;5023764;28;20044;-57
2023/03/16 00:32:18;;;;;;;10.80;4.72;;;4.20;99.90;;;;;;5023959;28;20140;-57
2023/03/16 00:34:44;;;;;;;9.32;5.18;;;4.30;99.90;;;;;;5024833;28;20033;-57
2023/03/16 00:37:14;;;;;;;9.80;5.25;;;4.30;99.90;;;;;;5022336;28;20473;-57
2023/03/16 00:39:40;;;;;;;10.10;5.45;;;4.20;99.90;;;;;;5023084;28;20508;-58
2023/03/16 00:42:06;;;;;;;19.38;5.43;;;4.20;99.90;;;;;;5023429;28;20030;-58
2023/03/16 00:44:32;;;;;;;12.93;4.97;;;4.20;99.90;;;;;;5022850;28;20758;-58
2023/03/16 00:46:58;;;;;;;8.40;4.60;;;4.10;99.90;;;;;;5025025;28;20079;-58
2023/03/16 00:49:23;;;;;;;9.25;5.20;;;4.20;99.90;;;;;;5022874;28;20092;-58
2023/03/16 00:51:49;;;;;;;9.90;4.70;;;4.20;99.90;;;;;;5025338;28;20033;-58
2023/03/16 00:54:16;;;;;;;9.02;4.50;;;4.30;99.90;;;;;;5021886;28;20040;-57
2023/03/16 00:56:42;;;;;;;10.10;4.57;;;4.20;99.90;;;;;;5021948;28;20060;-57
2023/03/16 00:59:07;;;;;;;9.48;5.00;;;4.20;99.90;;;;;;5023515;28;20473;-57
2023/03/16 01:01:33;;;;;;;8.30;4.22;;;4.20;99.90;;;;;;5024886;28;20484;-57
2023/03/16 01:03:59;;;;;;;11.45;4.95;;;4.20;99.90;;;;;;5023587;28;20056;-58
2023/03/16 01:06:25;;;;;;;8.40;4.40;;;4.30;99.90;;;;;;5023928;28;20033;-57
2023/03/16 01:08:51;;;;;;;8.90;4.18;;;4.30;99.90;;;;;;5024542;28;20029;-57
2023/03/16 01:11:20;;;;;;;7.53;4.50;;;4.30;99.90;;;;;;5022201;28;20144;-57
2023/03/16 01:13:47;;;;;;;9.77;4.82;;;4.40;99.90;;;;;;5023943;28;20053;-58
2023/03/16 01:16:13;;;;;;;8.10;4.53;;;4.40;99.90;;;;;;5003586;28;20041;-57
2023/03/16 01:18:40;;;;;;;8.75;4.85;;;4.40;99.90;;;;;;5001953;28;20062;-57
2023/03/16 01:21:07;;;;;;;7.63;4.40;;;4.30;99.90;;;;;;5003916;28;20468;-58
2023/03/16 01:23:33;;;;;;;8.23;4.50;;;4.30;99.90;;;;;;5005106;28;20120;-57
2023/03/16 01:26:01;;;;;;;8.80;4.53;;;4.30;99.90;;;;;;5002939;28;20030;-57
2023/03/16 01:28:29;;;;;;;6.00;4.05;;;4.40;99.90;;;;;;5024249;28;20030;-57
2023/03/16 01:30:59;;;;;;;8.85;4.35;;;4.40;99.90;;;;;;5022336;28;20044;-58
2023/03/16 01:33:26;;;;;;;10.27;4.65;;;4.40;99.90;;;;;;5019996;28;20395;-58
2023/03/16 01:35:53;;;;;;;8.88;4.25;;;4.40;99.90;;;;;;5024451;28;20389;-58
2023/03/16 01:38:19;;;;;;;8.27;4.63;;;4.40;99.90;;;;;;5023583;28;20061;-58
2023/03/16 01:40:46;;;;;;;8.70;4.30;;;4.30;99.90;;;;;;5021982;28;20072;-58
2023/03/16 01:43:12;;;;;;;8.15;4.18;;;4.30;99.90;;;;;;5023290;28;20037;-58
2023/03/16 01:46:08;;;;;;;8.68;4.20;;;4.40;99.90;;;;;;5023859;28;20129;-57
2023/03/16 01:48:45;;;;;;;8.93;4.00;;;4.40;99.90;;;;;;5021364;28;20041;-57
2023/03/16 01:51:30;;;;;;;9.55;4.32;;;4.30;99.90;;;;;;5020048;28;20040;-57
2023/03/16 01:54:14;;;;;;;10.07;4.22;;;4.30;99.90;;;;;;5023583;28;20068;-57
2023/03/16 01:56:50;;;;;;;;;;;4.30;99.90;;;;;;5018287;28;20085;-57
2023/03/16 01:59:20;;;;;;;8.80;4.47;;;4.40;99.90;;;;;;5020127;28;19983;-58
2023/03/16 02:01:47;;;;;;;9.27;4.13;;;4.40;99.90;;;;;;5023489;28;20073;-57
2023/03/16 02:04:45;;;;;;;9.15;4.00;;;4.40;99.90;;;;;;5019816;28;20030;-57
2023/03/16 02:07:15;;;;;;;6.78;4.00;;;4.40;99.90;;;;;;5008236;28;20600;-57
2023/03/16 02:09:45;;;;;;;8.27;4.20;;;4.40;99.90;;;;;;5019593;28;20041;-57
2023/03/16 02:12:16;;;;;;;9.15;4.50;;;4.40;99.90;;;;;;5018529;28;20377;-57
2023/03/16 02:14:51;;;;;;;8.50;4.18;;;4.30;99.90;;;;;;5007210;28;20045;-57
2023/03/16 02:17:27;;;;;;;9.18;4.22;;;4.20;99.90;;;;;;5019635;28;20038;-58
2023/03/16 02:20:08;;;;;;;8.40;4.10;;;4.30;99.90;;;;;;5023660;28;20123;-58
2023/03/16 02:22:35;;;;;;;8.35;3.88;;;4.40;99.90;;;;;;5020320;28;20111;-58
2023/03/16 02:25:01;;;;;;;7.45;4.03;;;4.40;99.90;;;;;;5022262;28;20029;-58
2023/03/16 02:27:34;;;;;;;10.88;4.47;;;4.40;99.90;;;;;;5022527;28;20036;-58
2023/03/16 02:30:18;;;;;;;8.38;4.05;;;4.30;99.90;;;;;;5027470;28;20033;-58
2023/03/16 02:32:47;;;;;;;7.10;4.50;;;4.30;99.90;;;;;;5021296;28;20145;-58
2023/03/16 02:35:13;;;;;;;6.68;3.97;;;4.30;99.90;;;;;;5026580;28;20040;-57
2023/03/16 02:37:39;;;;;;;8.50;3.65;;;4.20;99.90;;;;;;5024176;28;20354;-57
2023/03/16 02:40:26;;;;;;;9.80;4.30;;;4.20;99.90;;;;;;5023058;28;20149;-58
2023/03/16 02:43:02;;;;;;;11.57;4.05;;;4.30;99.90;;;;;;5026914;28;20056;-58
2023/03/16 02:45:33;;;;;;;7.68;3.88;;;4.30;99.90;;;;;;5027182;28;20044;-57
2023/03/16 02:48:04;;;;;;;6.35;4.20;;;4.30;99.90;;;;;;5027173;28;20444;-57
2023/03/16 02:50:29;;;;;;;7.60;4.25;;;4.30;99.90;;;;;;5006530;28;20038;-57
2023/03/16 02:52:55;;;;;;;5.20;3.90;;;4.30;99.90;;;;;;5008764;28;20034;-58
2023/03/16 02:55:20;;;;;;;6.88;3.80;;;4.30;99.90;;;;;;5006126;28;20030;-57
2023/03/16 02:57:46;;;;;;;7.15;3.90;;;4.20;99.90;;;;;;5007183;28;20041;-58
2023/03/16 03:00:17;;;;;;;5.80;3.50;;;4.30;99.90;;;;;;5006487;28;20110;-57
2023/03/16 03:02:44;;;;;;;7.82;3.90;;;4.40;99.90;;;;;;5004096;28;20124;-58
2023/03/16 03:05:10;;;;;;;8.25;3.80;;;4.30;99.90;;;;;;5001632;28;20119;-58
2023/03/16 03:07:36;;;;;;;6.45;3.72;;;4.20;99.90;;;;;;5019079;28;20124;-58
2023/03/16 03:10:01;;;;;;;7.60;3.72;;;4.30;99.90;;;;;;5024962;28;20145;-57
2023/03/16 03:12:27;;;;;;;7.63;4.50;;;4.40;99.90;;;;;;5008452;28;20040;-57
2023/03/16 03:14:52;;;;;;;5.80;3.33;;;4.40;99.90;;;;;;5026794;28;20025;-57
2023/03/16 03:17:18;;;;;;;6.07;3.60;;;4.40;99.90;;;;;;5020705;28;20331;-58
2023/03/16 03:19:44;;;;;;;9.57;3.60;;;4.40;99.90;;;;;;5025790;28;20370;-57
2023/03/16 03:22:09;;;;;;;5.20;3.70;;;4.40;99.90;;;;;;5025079;28;20029;-57
2023/03/16 03:24:35;;;;;;;8.65;3.60;;;4.40;99.90;;;;;;5025216;28;20030;-57
2023/03/16 03:27:04;;;;;;;6.15;3.90;;;4.40;99.90;;;;;;5024882;28;20042;-57
2023/03/16 03:29:33;;;;;;;8.35;4.00;;;4.40;99.90;;;;;;5006927;28;20085;-58
2023/03/16 03:32:03;;;;;;;7.00;3.78;;;4.30;99.90;;;;;;5006858;28;20053;-58
2023/03/16 03:34:30;;;;;;;7.03;3.83;;;4.30;99.90;;;;;;5005693;28;20133;-58
2023/03/16 03:36:56;;;;;;;8.13;4.00;;;4.30;99.90;;;;;;5006598;28;20065;-57
2023/03/16 03:39:21;;;;;;;5.22;3.40;;;4.30;99.90;;;;;;5003537;28;20068;-57
2023/03/16 03:41:47;;;;;;;4.70;3.53;;;4.20;99.90;;;;;;5005654;28;20438;-57
2023/03/16 03:44:12;;;;;;;4.95;3.53;;;4.20;99.90;;;;;;5005642;28;20117;-57
2023/03/16 03:46:38;;;;;;;8.48;3.58;;;4.20;99.90;;;;;;5006054;28;20049;-57
2023/03/16 03:49:04;;;;;;;7.28;3.72;;;4.30;99.90;;;;;;5005319;28;20044;-58
2023/03/16 03:51:32;;;;;;;5.50;3.55;;;4.30;99.90;;;;;;5023999;28;20572;-57
2023/03/16 03:53:58;;;;;;;7.40;3.40;;;4.30;99.90;;;;;;5025837;28;20025;-57
2023/03/16 03:56:24;;;;;;;8.25;3.92;;;4.30;99.90;;;;;;5024191;28;20602;-57
2023/03/16 03:58:50;;;;;;;7.80;3.80;;;4.30;99.90;;;;;;5006028;28;20029;-58
2023/03/16 04:01:16;;;;;;;5.13;3.50;;;4.40;99.90;;;;;;5018488;28;20703;-58
2023/03/16 04:03:42;;;;;;;8.07;3.35;;;4.40;99.90;;;;;;5022788;28;20107;-58
2023/03/16 04:06:08;;;;;;;10.30;3.75;;;4.40;99.90;;;;;;5019910;28;20037;-57
2023/03/16 04:08:34;;;;;;;7.90;3.78;;;4.50;99.90;;;;;;5022529;28;20037;-57
2023/03/16 04:11:00;;;;;;;7.53;3.50;;;4.40;99.90;;;;;;5022579;28;20124;-57
2023/03/16 04:13:26;;;;;;;7.60;3.92;;;4.30;99.90;;;;;;5023890;28;20129;-57
2023/03/16 04:16:03;;;;;;;6.53;3.67;;;4.40;99.90;;;;;;5021304;28;20033;-57
2023/03/16 04:18:37;;;;;;;6.68;3.72;;;4.50;99.90;;;;;;5021411;28;20401;-57
2023/03/16 04:21:07;;;;;;;8.98;3.45;;;4.30;99.90;;;;;;5023430;28;20044;-57
2023/03/16 04:23:33;;;;;;;8.02;3.60;;;4.30;99.90;;;;;;5022001;28;20666;-57
2023/03/16 04:25:59;;;;;;;7.95;3.72;;;4.30;99.90;;;;;;5021492;28;20483;-57
2023/03/16 04:28:25;;;;;;;8.23;3.90;;;4.40;99.90;;;;;;5020595;28;20029;-57
2023/03/16 04:30:53;;;;;;;6.60;3.10;;;4.40;99.90;;;;;;5022025;28;20095;-58
2023/03/16 04:33:19;;;;;;;8.23;3.83;;;4.40;99.90;;;;;;5021612;28;20036;-58
2023/03/16 04:35:45;;;;;;;7.40;3.53;;;4.30;99.90;;;;;;5019328;28;20159;-57
2023/03/16 04:38:11;;;;;;;6.20;3.42;;;4.40;99.90;;;;;;5022461;28;20133;-57
2023/03/16 04:40:37;;;;;;;6.32;3.20;;;4.40;99.90;;;;;;5021611;28;20068;-57
2023/03/16 04:43:02;;;;;;;6.60;3.30;;;4.40;99.90;;;;;;5024031;28;20033;-57
2023/03/16 04:45:28;;;;;;;7.47;3.50;;;4.40;99.90;;;;;;5023617;28;20319;-58
2023/03/16 04:47:53;;;;;;;7.35;3.60;;;4.50;99.90;;;;;;5003546;28;20171;-57
2023/03/16 04:50:19;;;;;;;6.32;3.30;;;4.40;99.90;;;;;;5003389;28;20112;-57
2023/03/16 04:52:45;;;;;;;6.75;3.35;;;4.40;99.90;;;;;;5005207;28;20068;-57
2023/03/16 04:55:10;;;;;;;8.77;3.53;;;4.30;99.90;;;;;;5019206;28;20065;-58
2023/03/16 04:57:36;;;;;;;6.50;3.45;;;4.40;99.90;;;;;;5021317;28;20508;-58
2023/03/16 05:00:18;;;;;;;10.73;3.45;;;4.50;99.90;;;;;;5020212;28;20037;-58
2023/03/16 05:02:44;;;;;;;11.27;3.55;;;4.50;99.90;;;;;;5020899;28;20033;-57
2023/03/16 05:05:10;;;;;;;6.63;3.55;;;4.50;99.90;;;;;;5022928;28;20036;-57
2023/03/16 05:07:35;;;;;;;7.05;3.78;;;4.50;99.90;;;;;;5019778;28;20041;-57
2023/03/16 05:10:02;;;;;;;7.18;3.65;;;4.50;99.90;;;;;;5022041;28;20087;-57
2023/03/16 05:12:28;;;;;;;8.18;3.53;;;4.40;99.90;;;;;;5026444;28;20063;-57
2023/03/16 05:14:54;;;;;;;5.22;3.30;;;4.40;99.90;;;;;;5028594;28;20033;-57
2023/03/16 05:17:21;;;;;;;7.72;3.70;;;4.40;99.90;;;;;;5023374;28;20030;-57
2023/03/16 05:19:46;;;;;;;6.55;3.60;;;4.50;99.90;;;;;;5026013;28;20029;-57
2023/03/16 05:22:12;;;;;;;7.65;4.10;;;4.40;99.90;;;;;;5022705;28;20037;-57
2023/03/16 05:24:38;;;;;;;6.70;3.75;;;4.40;99.90;;;;;;5021906;28;20037;-57
2023/03/16 05:27:03;;;;;;;6.82;3.42;;;4.40;99.90;;;;;;5021938;28;20091;-57
2023/03/16 05:29:32;;;;;;;7.80;4.03;;;4.40;99.90;;;;;;5023418;28;20064;-57
2023/03/16 05:31:58;;;;;;;5.60;3.35;;;4.50;99.90;;;;;;5021800;28;20700;-57
2023/03/16 05:34:24;;;;;;;6.53;4.07;;;4.50;99.90;;;;;;5020770;28;20057;-57
2023/03/16 05:36:49;;;;;;;6.00;3.40;;;4.50;99.90;;;;;;5004602;28;20060;-57
2023/03/16 05:39:15;;;;;;;8.55;4.00;;;4.50;99.90;;;;;;5020163;28;20037;-58
2023/03/16 05:41:41;;;;;;;5.35;3.50;;;4.50;99.90;;;;;;5022358;28;20041;-58
2023/03/16 05:44:07;;;;;;;6.18;4.07;;;4.40;99.90;;;;;;5022556;28;20057;-57
2023/03/16 05:46:33;;;;;;;8.10;4.30;;;4.50;99.90;;;;;;5019396;28;20042;-58
2023/03/16 05:48:58;;;;;;;8.25;4.07;;;4.40;99.90;;;;;;5022491;28;20033;-58
2023/03/16 05:51:27;;;;;;;5.25;3.88;;;4.40;99.90;;;;;;5022439;28;20026;-57
2023/03/16 05:53:56;;;;;;;6.43;3.80;;;4.40;99.90;;;;;;5022595;28;20338;-57
2023/03/16 05:56:26;;;;;;;8.27;3.92;;;4.50;99.90;;;;;;5018443;28;20373;-57
2023/03/16 05:58:53;;;;;;;6.10;3.83;;;4.60;99.90;;;;;;5008736;28;20118;-57
2023/03/16 06:01:19;;;;;;;5.18;3.63;;;4.50;99.90;;;;;;5022754;28;20037;-57
2023/03/16 06:03:50;;;;;;;7.30;4.20;;;4.50;99.90;;;;;;5026004;28;20033;-58
2023/03/16 06:06:16;;;;;;;9.52;4.20;;;4.50;99.90;;;;;;5023414;28;20085;-57
2023/03/16 06:08:42;;;;;;;8.13;4.50;;;4.60;99.90;;;;;;5026622;28;20041;-58
2023/03/16 06:11:09;;;;;;;8.00;3.95;;;4.70;99.90;;;;;;5024741;28;20037;-58
2023/03/16 06:13:34;;;;;;;8.82;4.28;;;4.60;99.90;;;;;;5005183;28;20113;-58
2023/03/16 06:16:01;;;;;;;9.60;4.47;;;4.60;99.90;;;;;;5025452;28;20136;-58
2023/03/16 06:18:26;;;;;;;10.60;4.32;;;4.80;99.90;;;;;;5025532;28;20032;-58
2023/03/16 06:20:52;;;;;;;8.52;4.75;;;4.80;99.90;;;;;;5006740;28;20026;-58
2023/03/16 06:23:19;;;;;;;7.28;4.40;;;4.70;99.90;;;;;;5025956;28;20075;-58
2023/03/16 06:25:46;;;;;;;6.90;4.75;;;4.80;99.90;;;;;;5025269;28;20629;-58
2023/03/16 06:28:13;;;;;;;9.63;4.65;;;4.80;99.90;;;;;;5025172;28;20026;-58
2023/03/16 06:30:39;;;;;;;7.43;4.63;;;4.90;99.90;;;;;;5025618;28;20148;-58
2023/03/16 06:33:05;;;;;;;7.85;4.70;;;4.90;99.90;;;;;;5024251;28;20413;-57
2023/03/16 06:35:31;;;;;;;8.60;5.10;;;5.00;99.90;;;;;;5025802;28;20029;-58
2023/03/16 06:37:56;;;;;;;8.93;5.00;;;5.10;99.90;;;;;;5024427;28;20040;-58
2023/03/16 06:40:22;;;;;;;9.95;5.10;;;5.20;99.90;;;;;;5023610;28;20191;-58
2023/03/16 06:42:48;;;;;;;7.22;5.03;;;5.30;99.90;;;;;;5025669;28;20060;-59
2023/03/16 06:45:15;;;;;;;7.43;4.82;;;5.30;99.90;;;;;;5025092;28;20033;-58
2023/03/16 06:47:42;;;;;;;10.15;5.20;;;5.30;99.90;;;;;;5025178;28;20048;-58
2023/03/16 06:50:09;;;;;;;5.88;4.60;;;5.40;99.90;;;;;;5006959;28;20043;-58
2023/03/16 06:52:35;;;;;;;10.18;5.22;;;5.40;99.90;;;;;;5025948;28;20045;-59
2023/03/16 06:55:01;;;;;;;9.30;5.05;;;5.50;99.90;;;;;;5024407;28;20026;-58
2023/03/16 06:57:26;;;;;;;10.23;5.15;;;5.50;99.90;;;;;;5024632;28;20742;-58
2023/03/16 06:59:52;;;;;;;9.07;5.13;;;5.50;99.90;;;;;;5022473;28;20037;-59
2023/03/16 07:02:18;;;;;;;8.80;5.55;;;5.50;99.90;;;;;;5024783;28;20084;-58
2023/03/16 07:04:44;;;;;;;8.95;4.82;;;5.50;99.90;;;;;;5024142;28;20361;-58
2023/03/16 07:07:10;;;;;;;11.90;5.30;;;5.40;99.90;;;;;;5022201;28;20080;-58
2023/03/16 07:09:36;;;;;;;11.43;6.00;;;5.40;99.90;;;;;;5025293;28;20087;-58
2023/03/16 07:12:02;;;;;;;10.18;5.82;;;5.50;99.90;;;;;;5026675;28;20072;-58
2023/03/16 07:14:28;;;;;;;10.63;6.03;;;5.60;99.90;;;;;;5025040;28;20040;-59
2023/03/16 07:16:53;;;;;;;8.63;5.75;;;5.70;99.90;;;;;;5027167;28;20033;-58
2023/03/16 07:19:19;;;;;;;10.88;6.20;;;5.50;99.90;;;;;;5024821;28;20145;-58
2023/03/16 07:21:45;;;;;;;8.80;5.28;;;5.40;99.90;;;;;;5025041;28;20281;-58
2023/03/16 07:24:11;;;;;;;10.45;5.50;;;5.40;99.90;;;;;;5022881;28;20072;-59
2023/03/16 07:26:37;;;;;;;10.00;5.57;;;5.40;99.90;;;;;;5023641;28;20037;-58
2023/03/16 07:29:05;;;;;;;8.05;5.65;;;5.60;99.90;;;;;;5024038;28;20220;-58
2023/03/16 07:31:31;;;;;;;10.45;5.95;;;5.60;99.90;;;;;;5024561;28;20327;-59
2023/03/16 07:33:57;;;;;;;10.02;5.32;;;5.60;99.90;;;;;;5023737;28;20567;-58
2023/03/16 07:36:23;;;;;;;10.73;6.15;;;5.70;99.90;;;;;;5024014;28;20496;-58
2023/03/16 07:38:50;;;;;;;9.20;5.68;;;5.60;99.90;;;;;;5022798;28;20121;-59
2023/03/16 07:41:16;;;;;;;8.93;5.85;;;5.50;99.90;;;;;;5021306;28;20480;-58
2023/03/16 07:43:43;;;;;;;10.60;5.85;;;5.60;99.90;;;;;;5024997;28;20064;-58
2023/03/16 07:46:12;;;;;;;10.82;6.22;;;5.60;99.90;;;;;;5026934;28;20029;-58
2023/03/16 07:48:43;;;;;;;10.50;6.25;;;5.70;99.90;;;;;;5024610;28;20029;-59
2023/03/16 07:51:12;;;;;;;9.02;5.97;;;5.70;99.90;;;;;;5023656;28;20033;-59
2023/03/16 07:53:39;;;;;;;13.32;6.43;;;5.70;99.90;;;;;;5024055;28;20029;-59
2023/03/16 07:56:04;;;;;;;9.90;6.15;;;5.70;99.90;;;;;;5020192;28;20136;-59
2023/03/16 07:58:31;;;;;;;8.77;6.28;;;5.70;99.90;;;;;;5023950;28;20045;-59
2023/03/16 08:00:57;;;;;;;10.10;5.90;;;5.90;99.90;;;;;;5024533;28;20041;-58
2023/03/16 08:03:23;;;;;;;10.27;6.25;;;6.00;99.90;;;;;;5023177;28;20052;-59
2023/03/16 08:05:50;;;;;;;10.30;6.20;;;6.10;99.90;;;;;;5022273;28;20040;-58
2023/03/16 08:08:16;;;;;;;8.68;5.88;;;6.10;99.90;;;;;;5021921;28;20060;-59
2023/03/16 08:10:42;;;;;;;11.45;5.97;;;6.20;99.90;;;;;;5022402;28;20378;-58
2023/03/16 08:13:08;;;;;;;11.52;6.15;;;6.40;99.90;;;;;;5023451;28;20040;-58
2023/03/16 08:15:33;;;;;;;12.32;6.82;;;6.50;99.90;;;;;;5024555;28;20044;-59
2023/03/16 08:18:03;;;;;;;10.90;6.38;;;6.60;99.90;;;;;;5023209;28;20029;-58
2023/03/16 08:20:29;;;;;;;9.23;6.10;;;6.50;99.90;;;;;;5023410;28;20029;-58
2023/03/16 08:22:54;;;;;;;10.18;6.32;;;6.60;99.90;;;;;;5023712;28;20042;-59
2023/03/16 08:25:20;;;;;;;10.18;6.47;;;6.60;99.90;;;;;;5021405;28;20072;-58
2023/03/16 08:27:47;;;;;;;9.25;5.38;;;6.50;99.90;;;;;;5023338;28;20444;-59
2023/03/16 08:30:15;;;;;;;11.77;5.55;;;6.50;99.90;;;;;;5022935;28;20033;-58
2023/03/16 08:32:41;;;;;;;8.88;5.75;;;6.50;99.90;;;;;;5022009;28;20038;-58
2023/03/16 08:35:09;;;;;;;9.00;6.38;;;6.60;99.90;;;;;;5023236;28;20040;-58
2023/03/16 08:37:35;;;;;;;10.65;5.82;;;6.60;99.90;;;;;;5023364;28;20045;-58
2023/03/16 08:40:01;;;;;;;8.02;5.47;;;6.50;99.90;;;;;;5021970;28;20416;-58
2023/03/16 08:42:27;;;;;;;7.63;5.00;;;6.50;99.90;;;;;;5023387;28;20492;-58
2023/03/16 08:44:54;;;;;;;7.57;5.15;;;6.60;99.90;;;;;;5025855;28;20029;-58
2023/03/16 08:47:23;;;;;;;8.38;5.30;;;6.70;99.90;;;;;;5025862;28;20323;-58
2023/03/16 08:55:46;;;;;;;9.52;5.72;;;6.70;99.90;;;;;;5226909;23;20074;-58
2023/03/16 08:58:12;;;;;;;8.75;5.03;;;6.70;99.90;;;;;;4935031;28;20083;-58
2023/03/16 09:00:39;;;;;;;8.57;5.60;;;6.70;99.90;;;;;;4956115;28;20105;-58
2023/03/16 09:03:05;;;;;;;11.27;5.20;;;6.60;99.90;;;;;;4956071;28;20455;-58
2023/03/16 09:05:31;;;;;;;7.82;5.00;;;6.70;99.90;;;;;;4961028;28;20094;-58
2023/03/16 09:07:57;;;;;;;8.70;5.35;;;6.90;99.90;;;;;;4961095;28;20039;-58
2023/03/16 09:10:24;;;;;;;10.55;5.90;;;7.00;99.90;;;;;;4955086;28;20093;-58
2023/03/16 09:12:51;;;;;;;12.63;6.35;;;7.10;99.90;;;;;;4960092;28;20093;-58
2023/03/16 09:15:18;;;;;;;10.73;6.15;;;7.10;99.90;;;;;;4958628;28;20714;-58
2023/03/16 09:17:45;;;;;;;11.30;6.18;;;7.20;99.90;;;;;;4960653;28;20562;-58
2023/03/16 09:20:12;;;;;;;9.13;5.75;;;7.40;99.90;;;;;;4957826;28;20035;-58
2023/03/16 09:22:39;;;;;;;10.25;5.63;;;7.30;99.90;;;;;;4959678;28;20066;-59
2023/03/16 09:25:05;;;;;;;12.45;6.07;;;7.40;99.90;;;;;;4954428;28;20031;-58
2023/03/16 09:30:57;;;;;;;10.65;5.68;;;7.60;99.90;;;;;;5801719;23;20052;-64
2023/03/16 09:33:23;;;;;;;11.30;5.63;;;7.60;99.90;;;;;;5009322;28;20041;-63
2023/03/16 09:35:50;;;;;;;7.90;5.68;;;7.70;99.90;;;;;;5018091;28;20038;-65
2023/03/16 09:38:17;;;;;;;7.60;5.38;;;7.30;99.90;;;;;;5024161;28;20037;-64
2023/03/16 09:40:44;;;;;;;7.93;4.70;;;7.70;99.90;;;;;;5022170;28;20029;-64
2023/03/16 09:43:39;;;;;;;9.50;5.43;;;7.70;99.90;;;;;;5026863;28;20021;-63
2023/03/16 09:46:08;;;;;;;8.18;4.78;;;7.70;99.90;;;;;;5024189;28;20353;-63
2023/03/16 09:48:37;;;;;;;9.75;5.13;;;7.70;99.90;;;;;;5026469;28;20025;-63
2023/03/16 09:51:06;;;;;;;10.85;5.95;;;7.90;99.90;;;;;;5024310;28;20095;-62
2023/03/16 09:53:39;;;;;;;11.13;5.95;;;8.10;99.90;;;;;;5026740;28;20506;-64
2023/03/16 09:56:13;;;;;;;9.50;6.00;;;8.10;99.90;;;;;;5027225;28;20435;-63
2023/03/16 09:58:39;;;;;;;9.02;6.45;;;8.20;99.90;;;;;;5025970;28;20048;-64
2023/03/16 10:01:20;;;;;;;8.82;5.80;;;8.30;99.90;;;;;;5020841;28;20037;-65
2023/03/16 10:04:16;;;;;;;8.70;5.80;;;8.20;99.90;;;;;;5025468;28;20033;-64
2023/03/16 10:06:54;;;;;;;9.35;5.40;;;8.10;99.90;;;;;;5023527;28;20390;-64
2023/03/16 10:09:37;;;;;;;9.85;5.63;;;8.10;99.90;;;;;;5025197;28;20042;-63
2023/03/16 10:12:06;;;;;;;8.73;5.90;;;8.10;99.90;;;;;;5025378;28;20117;-63
2023/03/16 10:14:57;;;;;;;8.23;5.88;;;8.20;99.90;;;;;;5033194;28;20059;-64
2023/03/16 10:17:51;;;;;;;9.55;5.50;;;8.20;99.90;;;;;;5024683;28;20561;-63
2023/03/16 10:20:22;;;;;;;8.20;5.30;;;8.20;99.90;;;;;;5019867;28;20033;-63
2023/03/16 10:22:51;;;;;;;9.35;5.18;;;8.20;99.90;;;;;;5010634;28;20084;-63
2023/03/16 10:25:38;;;;;;;7.30;4.68;;;8.30;99.90;;;;;;5012605;28;20046;-64
2023/03/16 10:28:03;;;;;;;10.77;5.00;;;8.30;99.90;;;;;;5020957;28;20044;-63
2023/03/16 10:30:35;;;;;;;10.02;4.63;;;8.50;99.90;;;;;;5028522;28;20037;-63
2023/03/16 10:33:12;;;;;;;8.05;4.60;;;8.60;99.90;;;;;;5005599;28;20072;-64
2023/03/16 10:35:47;;;;;;;8.40;4.57;;;8.80;99.90;;;;;;5012105;28;20080;-63
2023/03/16 10:38:41;;;;;;;8.07;4.78;;;8.90;99.90;;;;;;4997447;28;20038;-63
2023/03/16 10:41:35;;;;;;;7.00;4.35;;;9.00;99.90;;;;;;5002609;28;20393;-62
2023/03/16 10:44:20;;;;;;;7.50;4.25;;;9.10;99.90;;;;;;4992034;28;20037;-63
2023/03/16 10:47:00;;;;;;;8.48;4.25;;;9.20;99.90;;;;;;5005847;28;20128;-63
2023/03/16 10:49:40;;;;;;;8.55;4.22;;;9.30;99.90;;;;;;5004885;28;20067;-63
2023/03/16 10:52:12;;;;;;;6.47;4.10;;;9.40;99.90;;;;;;4998302;28;20711;-63
2023/03/16 10:54:39;;;;;;;9.50;4.50;;;9.40;99.90;;;;;;5005343;28;20095;-63
2023/03/16 10:57:26;;;;;;;8.90;4.75;;;9.40;99.90;;;;;;5001842;28;20080;-63
2023/03/16 11:00:00;;;;;;;7.63;4.32;;;9.40;99.90;;;;;;5005296;28;20054;-63
2023/03/16 11:02:33;;;;;;;9.13;4.57;;;9.40;99.90;;;;;;5002797;28;20038;-64
2023/03/16 11:05:09;;;;;;;6.97;4.60;;;9.50;99.90;;;;;;5001501;28;20049;-63
2023/03/16 11:07:36;;;;;;;5.75;4.25;;;9.50;99.90;;;;;;5004405;28;20042;-63
2023/03/16 11:10:22;;;;;;;7.65;4.65;;;9.60;99.90;;;;;;5002058;28;20033;-63
2023/03/16 11:12:51;;;;;;;6.95;4.38;;;9.60;99.90;;;;;;5004372;28;20493;-63
2023/03/16 11:15:17;;;;;;;10.52;4.43;;;9.60;99.90;;;;;;5006036;28;20030;-63
2023/03/16 11:17:52;;;;;;;8.38;4.90;;;9.70;99.90;;;;;;5005290;28;20056;-63
2023/03/16 11:20:27;;;;;;;8.00;4.63;;;9.80;99.90;;;;;;5005344;28;20040;-63
2023/03/16 11:22:53;;;;;;;6.75;4.93;;;9.80;99.90;;;;;;5004655;28;20038;-65
2023/03/16 11:25:32;;;;;;;7.70;3.80;;;9.90;99.90;;;;;;5003710;28;20505;-63
2023/03/16 11:28:31;;;;;;;8.68;3.88;;;9.90;99.90;;;;;;5001019;28;20121;-63
2023/03/16 11:31:44;;;;;;;6.95;4.03;;;9.90;99.90;;;;;;5008489;28;20038;-63
2023/03/16 11:34:18;;;;;;;7.57;3.65;;;9.90;99.90;;;;;;4914491;29;20442;-63
2023/03/16 11:36:55;;;;;;;6.30;3.22;;;9.90;99.90;;;;;;4907116;29;20164;-63
2023/03/16 11:39:43;;;;;;;7.30;3.28;;;9.80;99.90;;;;;;4972285;28;20037;-63
2023/03/16 11:42:29;;;;;;;6.63;3.45;;;10.00;99.90;;;;;;4998273;28;20468;-63
2023/03/16 11:45:14;;;;;;;5.72;3.70;;;10.00;99.90;;;;;;5009810;28;20144;-63
2023/03/16 11:48:17;;;;;;;4.30;2.83;;;9.90;99.90;;;;;;5006829;28;20129;-63
2023/03/16 11:51:02;;;;;;;9.45;3.17;;;9.90;99.90;;;;;;5007188;28;20046;-63
2023/03/16 11:53:36;;;;;;;10.60;4.47;;;10.00;99.90;;;;;;4994831;28;20076;-62
2023/03/16 11:56:30;;;;;;;7.15;3.38;;;10.30;99.90;;;;;;5005376;28;20041;-62
2023/03/16 11:59:24;;;;;;;5.88;3.10;;;10.30;99.90;;;;;;4994261;28;20132;-64
2023/03/16 12:02:08;;;;;;;6.15;3.00;;;10.30;99.90;;;;;;4988873;28;20149;-63
2023/03/16 12:05:08;;;;;;;6.80;2.92;;;10.30;99.90;;;;;;5003754;28;20029;-63
2023/03/16 12:07:36;;;;;;;5.38;3.03;;;10.40;99.90;;;;;;5006448;28;20061;-64
2023/03/16 12:10:22;;;;;;;7.07;3.40;;;10.40;99.90;;;;;;4994530;28;20065;-62
2023/03/16 12:13:15;;;;;;;6.75;3.22;;;10.50;99.90;;;;;;5004721;28;20412;-63
2023/03/16 12:15:53;;;;;;;5.60;2.90;;;10.50;99.90;;;;;;4972081;28;20510;-63
2023/03/16 12:18:42;;;;;;;6.68;2.95;;;10.50;99.90;;;;;;5004195;28;20033;-63
2023/03/16 12:21:32;;;;;;;8.93;3.35;;;10.50;99.90;;;;;;4996191;28;20048;-63
2023/03/16 12:24:23;;;;;;;6.53;3.10;;;10.60;99.90;;;;;;5003550;28;20038;-63
2023/03/16 12:26:50;;;;;;;9.70;3.30;;;10.60;99.90;;;;;;4984540;28;20045;-63
2023/03/16 12:29:34;;;;;;;5.10;3.00;;;10.50;99.90;;;;;;5006528;28;20115;-63
2023/03/16 12:32:25;;;;;;;5.68;2.92;;;10.60;99.90;;;;;;5003456;28;20136;-63
2023/03/16 12:35:08;;;;;;;6.38;3.30;;;10.70;99.90;;;;;;5003584;28;20088;-63
2023/03/16 12:37:59;;;;;;;5.50;2.70;;;10.80;99.90;;;;;;5003116;28;20029;-63
2023/03/16 12:40:43;;;;;;;5.38;2.70;;;10.90;99.90;;;;;;4997015;28;20397;-63
2023/03/16 12:43:16;;;;;;;8.07;3.20;;;10.90;99.90;;;;;;4999195;28;20365;-63
2023/03/16 12:45:57;;;;;;;4.70;2.80;;;10.80;99.90;;;;;;5003683;28;20552;-63
2023/03/16 12:48:43;;;;;;;7.90;3.28;;;10.90;99.90;;;;;;5003598;28;20069;-62
2023/03/16 12:51:09;;;;;;;6.05;3.20;;;11.00;99.90;;;;;;4998329;28;20401;-61
2023/03/16 12:53:54;;;;;;;6.47;3.33;;;10.90;99.90;;;;;;5003350;28;20030;-62
2023/03/16 12:56:34;;;;;;;5.97;2.95;;;11.00;99.90;;;;;;4999160;28;20049;-62
2023/03/16 12:59:04;;;;;;;4.75;3.30;;;11.00;99.90;;;;;;4999821;28;20108;-62
2023/03/16 13:01:37;;;;;;;7.55;3.22;;;11.10;99.90;;;;;;5003012;28;20073;-62
2023/03/16 13:04:40;;;;;;;6.30;3.35;;;11.10;99.90;;;;;;4993646;28;20583;-61
2023/03/16 13:07:22;;;;;;;5.32;2.90;;;11.20;99.90;;;;;;4954448;28;20035;-62
2023/03/16 13:09:58;;;;;;;12.57;2.95;;;11.40;99.90;;;;;;4997133;28;20044;-62
2023/03/16 13:12:31;;;;;;;16.13;3.33;;;11.40;99.90;;;;;;5002916;28;20038;-62
2023/03/16 13:14:58;;;;;;;6.93;3.33;;;11.50;99.90;;;;;;5008228;28;20133;-65
2023/03/16 13:17:33;;;;;;;4.03;3.00;;;11.50;99.90;;;;;;5003789;28;20671;-63
2023/03/16 13:20:12;;;;;;;7.05;3.17;;;11.40;99.90;;;;;;5004127;28;20099;-63
2023/03/16 13:23:22;;;;;;;4.90;3.00;;;11.40;99.90;;;;;;5008260;28;20030;-63